Time;durP1;ratioP1;P1;durP2;ratioP2;P2;SDS_P1;SDS_P2;PMS_P1;PMS_P2;Temp;Humidity;BMP_temperature;BMP_pressure;BME280_temperature;BME280_humidity;BME280_pressure;Samples;Min_cycle;Max_cycle;Signal;HPM_P1;HPM_P2
2022/08/01 00:02:15;;;;;;;8.50;6.42;;;;;;;14.54;90.31;98396.56;1715541;83;25673;-59
2022/08/01 00:04:41;;;;;;;7.78;5.85;;;;;;;14.53;90.22;98397.13;1715542;83;27403;-59
2022/08/01 00:07:07;;;;;;;6.92;6.03;;;;;;;14.55;89.92;98385.75;1715982;83;25583;-59
2022/08/01 00:09:33;;;;;;;8.40;6.03;;;;;;;14.45;88.95;98383.48;1716346;82;25634;-59
2022/08/01 00:11:59;;;;;;;6.67;5.72;;;;;;;14.25;89.32;98389.56;1715415;83;27619;-59
2022/08/01 00:14:26;;;;;;;8.90;6.03;;;;;;;14.20;90.05;98391.76;1714941;82;25422;-59
2022/08/01 00:16:51;;;;;;;6.92;5.70;;;;;;;14.24;90.72;98390.72;1715961;83;28223;-59
2022/08/01 00:19:17;;;;;;;7.53;6.30;;;;;;;14.26;90.13;98396.70;1715675;83;25502;-59
2022/08/01 00:21:43;;;;;;;6.60;5.90;;;;;;;14.24;89.70;98396.23;1716034;83;25636;-59
2022/08/01 00:24:10;;;;;;;7.72;5.95;;;;;;;14.15;89.32;98396.36;1715142;83;25637;-59
2022/08/01 00:26:36;;;;;;;6.22;5.62;;;;;;;14.05;89.20;98394.84;1715642;82;25660;-59
2022/08/01 00:29:02;;;;;;;7.30;5.67;;;;;;;13.93;89.54;98389.33;1715798;82;27569;-59
2022/08/01 00:31:28;;;;;;;6.58;5.65;;;;;;;13.92;90.11;98389.11;1715682;82;25672;-59
2022/08/01 00:33:54;;;;;;;9.03;6.12;;;;;;;14.00;90.71;98387.39;1715214;82;25560;-59
2022/08/01 00:36:20;;;;;;;5.92;5.33;;;;;;;14.07;90.47;98394.50;1715484;82;26191;-59
2022/08/01 00:38:46;;;;;;;8.70;6.25;;;;;;;14.06;89.91;98390.16;1715651;83;25468;-59
2022/08/01 00:41:12;;;;;;;7.25;5.70;;;;;;;14.02;89.43;98392.00;1715842;83;27450;-59
2022/08/01 00:43:39;;;;;;;6.58;5.62;;;;;;;13.97;89.83;98387.52;1714443;83;25734;-59
2022/08/01 00:46:05;;;;;;;9.70;6.08;;;;;;;13.98;90.94;98384.98;1715838;83;25619;-59
2022/08/01 00:48:31;;;;;;;6.67;5.33;;;;;;;13.98;90.94;98384.98;1715859;82;26171;-60
2022/08/01 00:50:57;;;;;;;7.35;5.40;;;;;;;14.00;90.75;98380.50;1715848;82;25451;-60
2022/08/01 00:53:25;;;;;;;7.05;5.62;;;;;;;14.00;91.06;98386.83;1715162;83;27652;-59
2022/08/01 00:55:51;;;;;;;7.45;5.10;;;;;;;14.00;91.15;98381.32;1715650;83;26031;-59
2022/08/01 00:58:17;;;;;;;9.40;5.42;;;;;;;14.01;91.37;98377.41;1715224;83;25458;-59
2022/08/01 01:00:44;;;;;;;5.62;4.80;;;;;;;14.02;90.94;98376.84;1715714;82;26327;-59
2022/08/01 01:03:10;;;;;;;5.70;5.10;;;;;;;13.95;90.68;98381.53;1715076;83;25569;-59
2022/08/01 01:05:42;;;;;;;5.78;5.20;;;;;;;13.84;90.46;98380.39;1715252;83;27411;-59
2022/08/01 01:08:19;;;;;;;9.78;5.50;;;;;;;13.82;91.05;98380.73;1715025;82;25616;-59
2022/08/01 01:11:00;;;;;;;5.70;5.10;;;;;;;13.82;90.65;98388.19;1715858;82;25502;-59
2022/08/01 01:13:41;;;;;;;6.80;5.25;;;;;;;13.84;91.00;98388.06;1715698;83;25428;-58
2022/08/01 01:16:14;;;;;;;5.85;4.95;;;;;;;13.81;90.56;98388.74;1715720;82;25467;-59
2022/08/01 01:19:00;;;;;;;7.03;5.35;;;;;;;13.78;90.42;98386.67;1715734;83;27434;-59
2022/08/01 01:21:50;;;;;;;6.58;5.00;;;;;;;13.71;90.15;98372.67;1715743;82;25605;-59
2022/08/01 01:24:34;;;;;;;6.05;5.12;;;;;;;13.60;90.10;98380.00;1711944;83;26774;-59
2022/08/01 01:27:20;;;;;;;5.37;4.55;;;;;;;13.46;90.23;98377.52;1715828;83;25754;-59
2022/08/01 01:29:54;;;;;;;7.42;4.55;;;;;;;13.26;90.87;98375.86;1714454;82;25718;-59
2022/08/01 01:32:34;;;;;;;4.97;4.47;;;;;;;13.26;90.87;98375.86;1715730;83;27371;-59
2022/08/01 01:35:08;;;;;;;6.10;5.10;;;;;;;13.25;90.64;98378.95;1714882;83;25724;-59
2022/08/01 01:37:37;;;;;;;5.10;4.53;;;;;;;13.20;90.80;98378.59;1715571;83;25682;-59
2022/08/01 01:40:06;;;;;;;5.25;4.75;;;;;;;13.20;90.89;98373.65;1715716;82;25649;-59
2022/08/01 01:42:33;;;;;;;6.42;4.75;;;;;;;13.21;90.99;98372.53;1715728;83;25472;-59
2022/08/01 01:45:03;;;;;;;5.90;4.60;;;;;;;13.28;91.44;98362.58;1714747;83;28431;-59
2022/08/01 01:47:31;;;;;;;5.92;4.50;;;;;;;13.32;91.07;98367.41;1715807;83;25684;-59
2022/08/01 01:50:00;;;;;;;4.85;4.40;;;;;;;13.18;90.10;98362.42;1715711;82;25471;-59
2022/08/01 01:52:28;;;;;;;5.28;4.60;;;;;;;13.17;90.11;98371.83;1715645;83;26289;-59
2022/08/01 01:54:56;;;;;;;5.75;4.37;;;;;;;13.09;90.22;98376.02;1715584;83;26691;-59
2022/08/01 01:57:24;;;;;;;5.67;4.22;;;;;;;13.02;90.30;98375.20;1715360;83;27459;-59
2022/08/01 01:59:53;;;;;;;5.53;4.95;;;;;;;12.98;90.74;98377.80;1715594;82;25935;-59
2022/08/01 02:02:21;;;;;;;4.62;4.22;;;;;;;12.94;90.83;98371.38;1715924;83;25669;-59
2022/08/01 02:04:49;;;;;;;5.70;4.70;;;;;;;12.92;90.74;98372.27;1715141;82;25475;-59
2022/08/01 02:07:19;;;;;;;5.10;4.25;;;;;;;12.95;91.04;98369.44;1715528;83;25634;-59
2022/08/01 02:09:47;;;;;;;5.40;4.50;;;;;;;12.91;90.60;98370.12;1715504;83;27595;-59
2022/08/01 02:12:16;;;;;;;8.20;6.37;;;;;;;12.84;90.59;98375.33;1715580;82;25791;-59
2022/08/01 02:14:45;;;;;;;7.90;6.00;;;;;;;12.80;91.03;98366.15;1715217;83;25495;-59
2022/08/01 02:17:15;;;;;;;6.60;4.70;;;;;;;12.86;91.08;98366.18;1715392;83;25698;-59
2022/08/01 02:19:42;;;;;;;6.70;5.80;;;;;;;12.88;90.83;98371.34;1715918;83;25676;-59
2022/08/01 02:22:13;;;;;;;5.87;5.17;;;;;;;12.84;90.74;98369.83;1715726;83;27441;-59
2022/08/01 02:24:50;;;;;;;8.73;6.40;;;;;;;12.86;91.31;98366.18;1714548;82;25732;-59
2022/08/01 02:27:22;;;;;;;7.97;6.58;;;;;;;12.85;90.68;98366.52;1696088;83;25492;-58
2022/08/01 02:30:05;;;;;;;11.45;8.18;;;;;;;12.79;90.66;98361.80;1715413;82;26286;-58
2022/08/01 02:32:51;;;;;;;9.88;6.72;;;;;;;12.75;90.92;98365.78;1715419;83;25660;-59
2022/08/01 02:35:28;;;;;;;8.10;6.67;;;;;;;12.80;91.44;98369.72;1715542;83;28290;-59
2022/08/01 02:37:57;;;;;;;11.25;7.28;;;;;;;12.86;91.53;98372.24;1724610;82;25879;-59
2022/08/01 02:40:28;;;;;;;8.60;6.92;;;;;;;12.90;91.24;98367.11;1724708;82;25482;-58
2022/08/01 02:42:56;;;;;;;9.20;7.03;;;;;;;12.92;91.30;98367.59;1723271;82;25600;-59
2022/08/01 02:45:26;;;;;;;10.30;7.75;;;;;;;12.95;91.19;98372.98;1724158;82;25447;-59
2022/08/01 02:48:03;;;;;;;9.13;7.12;;;;;;;12.98;91.38;98372.30;1725025;82;26903;-59
2022/08/01 02:50:31;;;;;;;12.95;6.70;;;;;;;12.94;90.54;98368.63;1724588;82;25638;-58
2022/08/01 02:53:00;;;;;;;8.43;6.40;;;;;;;12.93;90.96;98373.31;1724656;82;25732;-58
2022/08/01 02:55:28;;;;;;;7.62;6.17;;;;;;;12.95;90.81;98366.10;1708480;83;25510;-59
2022/08/01 02:57:56;;;;;;;7.40;6.70;;;;;;;12.95;90.67;98365.32;1726243;83;25656;-59
2022/08/01 03:00:25;;;;;;;7.85;6.20;;;;;;;12.88;89.92;98367.22;1726412;82;27368;-59
2022/08/01 03:02:54;;;;;;;8.05;6.22;;;;;;;12.80;90.77;98366.15;1726132;82;25527;-59
2022/08/01 03:05:21;;;;;;;10.85;6.37;;;;;;;12.79;90.70;98370.86;1724894;83;25739;-59
2022/08/01 03:07:48;;;;;;;6.40;5.40;;;;;;;12.80;90.91;98368.90;1724332;82;25444;-59
2022/08/01 03:10:16;;;;;;;7.42;6.10;;;;;;;12.75;90.92;98367.16;1724772;83;25737;-59
2022/08/01 03:12:44;;;;;;;7.95;6.30;;;;;;;12.79;91.45;98368.11;1724625;83;27458;-59
2022/08/01 03:15:13;;;;;;;7.90;6.00;;;;;;;12.83;91.15;98367.41;1724056;82;25507;-59
2022/08/01 03:17:43;;;;;;;9.20;6.40;;;;;;;12.85;91.27;98363.77;1724742;83;25628;-59
2022/08/01 03:20:14;;;;;;;7.35;5.67;;;;;;;12.83;90.45;98364.66;1724498;82;34867;-59
2022/08/01 03:22:42;;;;;;;8.03;6.08;;;;;;;12.73;90.58;98361.77;1724794;83;25750;-59
2022/08/01 03:25:10;;;;;;;10.18;6.45;;;;;;;12.71;91.13;98367.60;1723694;81;28259;-59
2022/08/01 03:27:37;;;;;;;7.30;5.90;;;;;;;12.75;91.37;98369.13;1724569;82;25451;-59
2022/08/01 03:30:06;;;;;;;8.28;6.30;;;;;;;12.80;91.43;98368.90;1724585;83;25632;-59
2022/08/01 03:32:34;;;;;;;8.50;5.95;;;;;;;12.85;91.13;98370.09;1724523;83;25490;-59
2022/08/01 03:35:00;;;;;;;10.03;6.53;;;;;;;12.84;90.40;98377.30;1723499;83;25708;-59
2022/08/01 03:37:45;;;;;;;7.35;6.37;;;;;;;12.76;90.04;98374.84;1724340;82;27476;-59
2022/08/01 03:40:23;;;;;;;7.45;5.55;;;;;;;12.67;90.19;98378.45;1724665;82;25665;-59
2022/08/01 03:42:54;;;;;;;9.25;6.33;;;;;;;12.62;90.34;98373.73;1724387;82;25692;-59
2022/08/01 03:45:30;;;;;;;;;;;;;;;12.55;90.43;98368.75;1726352;82;25759;-59
2022/08/01 03:48:00;;;;;;;8.10;5.83;;;;;;;12.49;90.58;98362.66;1724392;82;25459;-59
2022/08/01 03:50:29;;;;;;;8.98;6.87;;;;;;;12.46;90.78;98375.69;1724417;82;28207;-60
2022/08/01 03:52:59;;;;;;;8.50;6.42;;;;;;;12.42;91.09;98365.95;1724521;83;25965;-59
2022/08/01 03:55:27;;;;;;;10.25;7.28;;;;;;;12.44;91.53;98368.92;1724086;82;25613;-59
2022/08/01 03:57:54;;;;;;;13.05;8.05;;;;;;;12.48;91.77;98369.86;1724606;83;25690;-59
2022/08/01 04:00:20;;;;;;;11.00;7.30;;;;;;;12.51;91.95;98375.50;1724696;82;25439;-59
2022/08/01 04:02:51;;;;;;;9.08;7.65;;;;;;;12.59;92.10;98373.02;1724705;83;27624;-59
2022/08/01 04:05:18;;;;;;;8.50;7.22;;;;;;;12.71;92.51;98373.10;1724217;82;25708;-59
2022/08/01 04:07:59;;;;;;;9.93;7.37;;;;;;;12.83;92.60;98372.91;1724744;82;25728;-59
2022/08/01 04:10:21;;;;;;;8.63;7.42;;;;;;;12.90;92.27;98372.61;1723137;82;25443;-59
2022/08/01 04:12:47;;;;;;;11.97;7.65;;;;;;;13.01;92.41;98375.76;1724736;82;25432;-59
2022/08/01 04:15:13;;;;;;;8.20;6.95;;;;;;;13.15;92.94;98378.23;1724775;82;27420;-59
2022/08/01 04:17:40;;;;;;;8.43;6.90;;;;;;;13.38;93.19;98375.66;1724467;83;25958;-59
2022/08/01 04:20:07;;;;;;;11.00;7.37;;;;;;;13.56;92.40;98381.84;1723485;81;25842;-59
2022/08/01 04:22:35;;;;;;;8.13;7.00;;;;;;;13.62;91.37;98378.28;1725111;81;26168;-60
2022/08/01 04:25:08;;;;;;;11.30;7.78;;;;;;;13.73;92.48;98380.81;1724379;82;25699;-59
2022/08/01 04:27:39;;;;;;;13.08;7.30;;;;;;;13.93;93.12;98374.99;1719627;83;28005;-59
2022/08/01 04:30:06;;;;;;;;;;;;;;;14.15;92.45;98377.63;1727158;82;25418;-59
2022/08/01 04:32:37;;;;;;;12.68;7.00;;;;;;;14.44;91.63;98384.05;1720305;82;26077;-59
2022/08/01 04:35:07;;;;;;;10.48;7.92;;;;;;;14.63;91.86;98382.64;1724712;82;25609;-59
2022/08/01 04:37:36;;;;;;;13.58;7.72;;;;;;;14.79;90.73;98381.36;1724669;82;25494;-60
2022/08/01 04:40:06;;;;;;;14.30;8.33;;;;;;;14.95;90.30;98381.44;1724865;83;27445;-60
2022/08/01 04:42:33;;;;;;;12.90;8.40;;;;;;;15.05;89.71;98382.88;1724806;82;25651;-60
2022/08/01 04:45:01;;;;;;;15.58;7.90;;;;;;;15.05;89.06;98382.31;1725974;83;25493;-60
2022/08/01 04:47:29;;;;;;;11.40;7.65;;;;;;;15.13;89.28;98386.65;1726042;82;25622;-60
2022/08/01 04:49:56;;;;;;;14.30;8.20;;;;;;;15.16;88.37;98384.00;1726394;83;25637;-59
2022/08/01 04:52:22;;;;;;;13.90;9.08;;;;;;;15.28;88.28;98387.84;1724455;82;27374;-59
2022/08/01 04:54:48;;;;;;;17.45;9.13;;;;;;;15.39;88.98;98388.95;1722803;83;26535;-59
2022/08/01 04:57:14;;;;;;;13.40;8.90;;;;;;;15.39;88.98;98388.95;1721335;82;25494;-59
2022/08/01 04:59:44;;;;;;;14.40;9.68;;;;;;;15.52;88.09;98384.75;1724505;82;27552;-59
2022/08/01 05:02:17;;;;;;;14.43;9.63;;;;;;;15.61;87.93;98379.88;1723876;83;25614;-59
2022/08/01 05:04:45;;;;;;;17.45;10.35;;;;;;;15.75;87.76;98385.54;1724229;82;27574;-59
2022/08/01 05:07:12;;;;;;;16.70;9.98;;;;;;;15.86;87.72;98380.29;1724982;81;26015;-59
2022/08/01 05:09:42;;;;;;;15.30;9.23;;;;;;;15.99;87.70;98383.78;1724926;82;25656;-59
2022/08/01 05:12:10;;;;;;;16.02;10.25;;;;;;;16.10;86.87;98379.33;1723367;83;35146;-59
2022/08/01 05:14:38;;;;;;;14.58;9.35;;;;;;;16.17;86.07;98384.20;1724787;82;25601;-59
2022/08/01 05:17:07;;;;;;;17.70;10.28;;;;;;;16.27;86.56;98380.89;1724818;83;27247;-59
2022/08/01 05:19:38;;;;;;;16.23;9.90;;;;;;;16.42;87.03;98376.52;1724756;82;25612;-59
2022/08/01 05:22:09;;;;;;;25.17;9.95;;;;;;;16.50;86.04;98372.52;1721932;81;25698;-58
2022/08/01 05:24:38;;;;;;;13.28;9.05;;;;;;;16.62;85.45;98364.11;1724082;83;25624;-59
2022/08/01 05:27:07;;;;;;;16.32;8.95;;;;;;;16.62;85.45;98364.11;1724959;83;25429;-59
2022/08/01 05:29:34;;;;;;;13.78;8.95;;;;;;;16.68;84.91;98366.81;1724671;82;27840;-59
2022/08/01 05:32:00;;;;;;;14.30;8.80;;;;;;;16.79;85.28;98375.91;1724590;82;25744;-59
2022/08/01 05:34:27;;;;;;;17.45;8.40;;;;;;;16.88;84.59;98380.66;1724770;81;25644;-59
2022/08/01 05:36:53;;;;;;;14.95;8.60;;;;;;;16.93;84.10;98378.97;1721588;83;25624;-59
2022/08/01 05:39:19;;;;;;;14.15;8.48;;;;;;;17.05;84.97;98389.12;1716434;83;25708;-59
2022/08/01 05:41:46;;;;;;;10.58;7.67;;;;;;;17.12;83.75;98379.36;1717221;82;27851;-59
2022/08/01 05:44:12;;;;;;;15.95;7.87;;;;;;;17.19;82.96;98386.45;1714368;83;25658;-59
2022/08/01 05:46:38;;;;;;;11.45;7.97;;;;;;;17.29;83.54;98383.66;1715524;83;25637;-59
2022/08/01 05:49:05;;;;;;;11.00;7.50;;;;;;;17.43;83.69;98378.41;1715458;83;25467;-59
2022/08/01 05:51:32;;;;;;;11.33;7.35;;;;;;;17.59;83.84;98385.00;1714516;83;25688;-59
2022/08/01 05:53:59;;;;;;;12.37;6.65;;;;;;;17.75;82.28;98387.07;1715414;83;28539;-59
2022/08/01 05:56:26;;;;;;;9.30;6.40;;;;;;;17.90;82.47;98391.46;1715682;83;25476;-59
2022/08/01 05:58:52;;;;;;;13.40;6.83;;;;;;;18.00;81.29;98388.66;1715407;83;25689;-59
2022/08/01 06:01:19;;;;;;;9.88;5.90;;;;;;;18.11;81.61;98386.91;1715417;83;25627;-58
2022/08/01 06:03:46;;;;;;;11.97;5.50;;;;;;;18.23;79.22;98398.39;1709700;83;25719;-59
2022/08/01 06:06:14;;;;;;;11.78;6.05;;;;;;;18.29;80.13;98398.28;1715736;83;27436;-59
2022/08/01 06:08:40;;;;;;;9.70;6.03;;;;;;;18.35;79.40;98398.77;1715475;83;26012;-59
2022/08/01 06:11:07;;;;;;;8.18;5.50;;;;;;;18.45;78.07;98400.69;1713566;83;25729;-59
2022/08/01 06:13:33;;;;;;;8.05;5.62;;;;;;;18.61;79.50;98403.28;1712527;82;26518;-59
2022/08/01 06:15:59;;;;;;;9.30;5.37;;;;;;;18.81;77.91;98395.64;1717332;82;25688;-59
2022/08/01 06:18:26;;;;;;;7.30;4.87;;;;;;;19.04;79.30;98396.94;1715250;83;26953;-58
2022/08/01 06:20:52;;;;;;;6.10;4.40;;;;;;;19.29;78.43;98390.89;1715644;82;25680;-59
2022/08/01 06:23:20;;;;;;;7.60;4.75;;;;;;;19.61;77.26;98392.43;1715367;83;25676;-59
2022/08/01 06:25:47;;;;;;;5.58;3.80;;;;;;;19.78;76.94;98392.98;1715773;83;25640;-59
2022/08/01 06:28:13;;;;;;;6.75;4.47;;;;;;;19.89;75.98;98393.09;1714174;83;25470;-59
2022/08/01 06:30:40;;;;;;;5.12;3.55;;;;;;;19.99;74.82;98398.52;1705179;83;27544;-59
2022/08/01 06:33:06;;;;;;;5.78;3.62;;;;;;;20.12;73.98;98403.23;1688060;84;25700;-59
2022/08/01 06:35:33;;;;;;;7.97;4.40;;;;;;;20.13;70.97;98402.86;1683654;85;25689;-59
2022/08/01 06:38:00;;;;;;;6.70;4.12;;;;;;;20.22;74.28;98398.93;1707600;83;25583;-59
2022/08/01 06:40:27;;;;;;;5.50;4.00;;;;;;;20.37;73.77;98395.07;1757565;81;25419;-59
2022/08/01 06:42:54;;;;;;;7.05;4.80;;;;;;;20.43;72.50;98394.92;1757552;81;27873;-59
2022/08/01 06:45:25;;;;;;;6.08;4.12;;;;;;;20.39;71.08;98398.86;1757470;81;25656;-59
2022/08/01 06:47:49;;;;;;;6.33;3.72;;;;;;;20.45;71.99;98398.70;1772467;80;25451;-59
2022/08/01 06:50:16;;;;;;;6.30;4.00;;;;;;;20.46;70.67;98397.52;1785816;80;25684;-60
2022/08/01 06:52:43;;;;;;;5.92;3.65;;;;;;;20.49;72.68;98401.52;1785929;80;25640;-59
2022/08/01 06:55:10;;;;;;;6.85;3.80;;;;;;;20.63;72.31;98395.22;1768727;80;27395;-59
2022/08/01 06:57:38;;;;;;;5.62;3.60;;;;;;;20.78;72.14;98397.52;1757342;81;25995;-59
2022/08/01 07:00:10;;;;;;;5.00;3.20;;;;;;;20.96;72.40;98399.61;1757565;81;25405;-59
2022/08/01 07:02:36;;;;;;;7.80;3.65;;;;;;;21.05;72.10;98405.05;1757352;81;25633;-59
2022/08/01 07:05:04;;;;;;;7.83;3.70;;;;;;;21.11;71.63;98395.70;1757392;81;25402;-58
2022/08/01 07:07:32;;;;;;;4.83;3.98;;;;;;;21.15;70.58;98399.30;1756389;81;27394;-58
2022/08/01 07:09:58;;;;;;;6.25;4.20;;;;;;;21.13;70.68;98396.70;1755845;81;25498;-58
2022/08/01 07:12:25;;;;;;;4.70;3.25;;;;;;;21.15;70.30;98397.91;1755692;81;25498;-58
2022/08/01 07:14:52;;;;;;;6.97;3.77;;;;;;;21.15;69.33;98397.09;1750336;81;25816;-58
2022/08/01 07:17:20;;;;;;;7.15;3.98;;;;;;;21.22;69.52;98387.39;1755838;81;25728;-58
2022/08/01 07:19:47;;;;;;;4.60;3.47;;;;;;;21.37;70.38;98389.62;1757330;81;27402;-58
2022/08/01 07:22:14;;;;;;;5.53;4.05;;;;;;;21.41;68.46;98390.42;1757290;81;26133;-58
2022/08/01 07:24:41;;;;;;;5.58;3.60;;;;;;;21.53;69.15;98392.66;1757277;81;25432;-59
2022/08/01 07:27:09;;;;;;;3.80;2.92;;;;;;;21.54;66.69;98396.44;1757063;80;25432;-58
2022/08/01 07:29:35;;;;;;;5.22;3.50;;;;;;;21.62;64.79;98392.27;1757636;80;25593;-59
2022/08/01 07:32:02;;;;;;;5.92;3.50;;;;;;;21.73;67.71;98386.09;1757454;81;27400;-59
2022/08/01 07:34:28;;;;;;;6.67;3.33;;;;;;;22.00;64.66;98387.16;1757326;81;25434;-59
2022/08/01 07:36:55;;;;;;;4.72;3.25;;;;;;;22.06;65.10;98384.76;1757635;80;25245;-59
2022/08/01 07:39:22;;;;;;;8.33;3.40;;;;;;;22.33;66.69;98393.33;1757332;81;25987;-59
2022/08/01 07:41:49;;;;;;;6.92;3.77;;;;;;;22.46;65.30;98385.31;1730767;81;25784;-59
2022/08/01 07:44:15;;;;;;;4.17;3.25;;;;;;;22.68;66.20;98392.48;1727222;83;27573;-59
2022/08/01 07:46:42;;;;;;;3.45;3.05;;;;;;;22.99;65.50;98386.98;1727843;81;25634;-60
2022/08/01 07:49:09;;;;;;;4.05;3.30;;;;;;;23.22;63.04;98385.09;1727367;83;25618;-60
2022/08/01 07:51:35;;;;;;;3.52;2.95;;;;;;;23.27;63.78;98384.69;1727323;83;25485;-60
2022/08/01 07:54:03;;;;;;;5.42;3.10;;;;;;;23.42;64.55;98387.41;1727399;83;25452;-60
2022/08/01 07:56:30;;;;;;;5.22;3.30;;;;;;;23.67;64.23;98392.07;1737608;80;28175;-60
2022/08/01 07:58:56;;;;;;;3.77;3.20;;;;;;;23.85;61.29;98393.93;1757138;81;25471;-60
2022/08/01 08:01:23;;;;;;;4.40;3.08;;;;;;;23.94;63.03;98381.08;1757476;81;25491;-60
2022/08/01 08:03:50;;;;;;;3.45;2.65;;;;;;;24.21;63.87;98385.89;1757159;81;25620;-60
2022/08/01 08:06:16;;;;;;;4.37;2.83;;;;;;;24.36;62.21;98387.95;1756925;80;25634;-60
2022/08/01 08:08:43;;;;;;;3.47;2.70;;;;;;;24.58;61.28;98389.92;1757579;81;28044;-60
2022/08/01 08:11:10;;;;;;;3.42;2.80;;;;;;;24.74;61.48;98388.56;1757547;81;25396;-60
2022/08/01 08:13:36;;;;;;;4.30;2.77;;;;;;;24.83;57.32;98388.05;1751965;81;25882;-60
2022/08/01 08:16:04;;;;;;;4.28;2.67;;;;;;;24.92;60.30;98393.39;1756791;81;25587;-60
2022/08/01 08:18:30;;;;;;;4.17;2.58;;;;;;;24.78;57.84;98390.73;1756508;81;25447;-60
2022/08/01 08:20:57;;;;;;;3.22;2.60;;;;;;;24.66;58.40;98394.84;1756363;81;27376;-59
2022/08/01 08:26:08;;;;;;;5.17;2.83;;;;;;;24.74;60.28;98391.36;1750654;81;25598;-60
2022/08/01 08:28:35;;;;;;;4.67;2.62;;;;;;;25.09;58.57;98388.58;1727494;83;25475;-60
2022/08/01 08:31:02;;;;;;;3.25;2.60;;;;;;;25.33;57.07;98388.69;1727524;83;25484;-60
2022/08/01 08:33:28;;;;;;;3.67;2.85;;;;;;;25.53;58.49;98390.22;1727525;83;27595;-60
2022/08/01 08:35:55;;;;;;;3.00;2.70;;;;;;;25.74;56.42;98390.54;1734440;80;25578;-60
2022/08/01 08:38:21;;;;;;;3.90;3.00;;;;;;;25.84;56.15;98393.61;1757765;81;25618;-60
2022/08/01 08:40:48;;;;;;;3.95;2.55;;;;;;;25.96;55.76;98391.59;1757872;81;25489;-60
2022/08/01 08:43:16;;;;;;;4.28;2.95;;;;;;;26.00;55.40;98395.75;1758292;81;25610;-60
2022/08/01 08:45:44;;;;;;;4.33;2.90;;;;;;;26.08;56.87;98399.23;1757855;81;28276;-60
2022/08/01 08:48:13;;;;;;;3.40;3.02;;;;;;;26.12;57.35;98400.77;1757916;81;25986;-60
2022/08/01 08:50:43;;;;;;;4.35;3.05;;;;;;;26.12;56.64;98402.77;1758669;81;25487;-60
2022/08/01 08:53:10;;;;;;;;;;;;;;;26.17;56.80;98405.88;1760817;81;25428;-60
2022/08/01 08:55:37;;;;;;;5.10;2.92;;;;;;;26.01;57.21;98406.55;1726739;82;25660;-60
2022/08/01 08:58:05;;;;;;;6.53;2.85;;;;;;;25.86;57.83;98409.39;1725838;83;28301;-60
2022/08/01 09:00:35;;;;;;;3.70;2.90;;;;;;;25.89;58.98;98403.73;1730019;82;25696;-59
2022/08/01 09:03:02;;;;;;;5.12;2.98;;;;;;;25.91;58.55;98410.33;1756451;81;25655;-60
2022/08/01 09:05:29;;;;;;;4.42;3.00;;;;;;;26.00;58.56;98411.19;1730836;81;25646;-60
2022/08/01 09:07:55;;;;;;;3.37;3.00;;;;;;;26.02;58.34;98421.39;1729330;82;25659;-60
2022/08/01 09:10:22;;;;;;;4.42;2.90;;;;;;;26.01;58.10;98421.19;1728010;82;28276;-60
2022/08/01 09:13:10;;;;;;;4.12;3.15;;;;;;;26.07;57.85;98419.49;1731163;82;25610;-60
2022/08/01 09:15:58;;;;;;;3.58;3.20;;;;;;;26.18;58.40;98425.74;1731185;82;25696;-60
2022/08/01 09:18:40;;;;;;;3.62;3.08;;;;;;;26.22;56.59;98413.66;1729152;82;25656;-60
2022/08/01 09:21:17;;;;;;;7.20;3.20;;;;;;;26.42;55.78;98419.34;1758235;81;25598;-60
2022/08/01 09:23:54;;;;;;;4.95;2.90;;;;;;;26.54;56.21;98420.12;1731358;82;27896;-60
2022/08/01 09:26:34;;;;;;;3.58;2.90;;;;;;;26.62;55.35;98420.02;1731297;82;25536;-59
2022/08/01 09:29:07;;;;;;;3.42;3.12;;;;;;;26.49;55.68;98424.05;1728411;82;25816;-59
2022/08/01 09:31:43;;;;;;;5.67;3.17;;;;;;;26.50;56.04;98426.43;1730523;82;25689;-60
2022/08/01 09:34:10;;;;;;;3.83;3.27;;;;;;;26.73;54.68;98422.00;1730600;82;25732;-60
2022/08/01 09:36:55;;;;;;;4.50;3.22;;;;;;;26.96;55.99;98418.95;1730364;82;27415;-60
2022/08/01 09:39:26;;;;;;;4.10;3.67;;;;;;;27.09;57.73;98424.77;1746638;81;25776;-60
2022/08/01 09:42:00;;;;;;;4.10;3.00;;;;;;;27.16;56.14;98428.03;1748592;82;25701;-60
2022/08/01 09:45:01;;;;;;;3.98;3.42;;;;;;;27.25;54.64;98432.46;1744074;81;25994;-60
2022/08/01 09:47:40;;;;;;;3.62;3.27;;;;;;;27.33;56.43;98431.70;1731853;82;25439;-59
2022/08/01 09:50:08;;;;;;;6.72;3.27;;;;;;;27.17;53.51;98434.62;1703351;84;27581;-59
2022/08/01 09:52:34;;;;;;;3.65;3.35;;;;;;;27.00;53.75;98430.94;1702917;84;25739;-59
2022/08/01 09:55:06;;;;;;;4.15;3.20;;;;;;;26.96;55.24;98430.80;1704402;83;25719;-60
2022/08/01 09:57:32;;;;;;;4.15;3.75;;;;;;;26.78;52.96;98432.75;1706671;82;25627;-60
2022/08/01 10:00:01;;;;;;;4.20;3.77;;;;;;;26.63;54.50;98432.23;1711990;82;25704;-59
2022/08/01 10:02:37;;;;;;;4.37;3.70;;;;;;;26.54;55.00;98436.98;1732864;82;27432;-59
2022/08/01 10:05:08;;;;;;;4.35;3.80;;;;;;;26.41;55.10;98436.83;1732615;82;25858;-59
2022/08/01 10:08:01;;;;;;;4.53;3.58;;;;;;;26.31;54.84;98435.00;1732268;82;25691;-60
2022/08/01 10:10:28;;;;;;;4.67;3.80;;;;;;;26.23;54.73;98436.30;1734226;82;25982;-59
2022/08/01 10:12:57;;;;;;;5.05;3.77;;;;;;;26.22;54.09;98424.26;1734261;82;25425;-59
2022/08/01 10:15:26;;;;;;;4.20;3.70;;;;;;;26.36;53.75;98429.50;1734423;82;27426;-59
2022/08/01 10:17:59;;;;;;;5.53;3.85;;;;;;;26.50;54.24;98427.83;1733328;82;25741;-59
2022/08/01 10:20:29;;;;;;;5.33;4.10;;;;;;;26.43;53.79;98427.97;1732677;82;25732;-59
2022/08/01 10:23:03;;;;;;;5.75;3.85;;;;;;;26.38;54.20;98426.44;1732039;82;26248;-59
2022/08/01 10:25:37;;;;;;;6.25;4.40;;;;;;;26.32;54.97;98425.34;1732472;82;25608;-60
2022/08/01 10:28:09;;;;;;;4.20;3.80;;;;;;;26.25;55.32;98423.41;1732126;82;27469;-59
2022/08/01 10:30:36;;;;;;;5.50;4.50;;;;;;;26.22;54.95;98424.89;1728808;81;27155;-59
2022/08/01 10:33:03;;;;;;;5.22;4.20;;;;;;;26.24;55.23;98432.25;1704734;83;25410;-59
2022/08/01 10:35:32;;;;;;;5.22;4.28;;;;;;;26.18;55.63;98434.77;1704766;83;25697;-59
2022/08/01 10:37:59;;;;;;;5.53;4.20;;;;;;;26.19;54.77;98437.14;1711908;81;25742;-59
2022/08/01 10:40:27;;;;;;;6.62;4.37;;;;;;;26.31;54.31;98437.17;1732782;82;27463;-59
2022/08/01 10:42:56;;;;;;;5.08;4.58;;;;;;;26.34;56.11;98435.55;1733242;82;25658;-60
2022/08/01 10:45:26;;;;;;;5.45;4.25;;;;;;;26.42;54.80;98437.00;1732713;82;25651;-60
2022/08/01 10:48:13;;;;;;;7.62;4.35;;;;;;;26.67;53.32;98436.36;1732106;82;26364;-60
2022/08/01 10:50:44;;;;;;;5.35;4.25;;;;;;;26.90;55.03;98430.52;1732594;82;25443;-59
2022/08/01 10:53:20;;;;;;;5.08;4.33;;;;;;;27.08;54.59;98430.82;1732911;82;28017;-60
2022/08/01 10:56:05;;;;;;;5.67;4.20;;;;;;;27.07;54.61;98438.45;1732645;82;25513;-59
2022/08/01 10:58:37;;;;;;;4.72;4.33;;;;;;;27.03;54.04;98436.34;1731216;82;25679;-60
2022/08/01 11:01:26;;;;;;;6.75;4.53;;;;;;;26.98;53.56;98433.98;1732449;82;25672;-60
2022/08/01 11:04:07;;;;;;;7.20;4.40;;;;;;;26.98;54.76;98438.20;1732906;82;25404;-59
2022/08/01 11:06:39;;;;;;;6.87;4.67;;;;;;;26.89;53.86;98435.97;1732723;82;28272;-59
2022/08/01 11:09:17;;;;;;;7.03;4.60;;;;;;;26.64;55.36;98434.41;1731957;82;25431;-61
2022/08/01 11:12:09;;;;;;;5.25;4.08;;;;;;;26.53;54.95;98445.24;1731415;82;25721;-61
2022/08/01 11:15:01;;;;;;;6.22;4.65;;;;;;;26.52;55.69;98445.67;1732345;82;25680;-59
2022/08/01 11:17:48;;;;;;;5.87;4.90;;;;;;;26.25;55.92;98438.08;1732684;82;25632;-59
2022/08/01 11:20:18;;;;;;;8.45;4.83;;;;;;;26.00;56.00;98439.27;1733421;81;27608;-60
2022/08/01 11:23:05;;;;;;;5.30;4.33;;;;;;;25.85;56.33;98442.30;1705268;82;25762;-59
2022/08/01 11:25:45;;;;;;;5.50;4.70;;;;;;;25.87;56.81;98441.85;1703108;84;25436;-60
2022/08/01 11:28:25;;;;;;;7.33;4.62;;;;;;;25.90;57.03;98439.00;1733973;82;32689;-60
2022/08/01 11:30:55;;;;;;;6.20;5.15;;;;;;;25.86;56.44;98434.66;1734100;82;25467;-60
2022/08/01 11:33:47;;;;;;;6.58;5.15;;;;;;;25.90;57.21;98441.80;1714191;82;27447;-59
2022/08/01 11:36:19;;;;;;;5.10;4.60;;;;;;;25.85;58.15;98438.09;1734028;82;25469;-60
2022/08/01 11:39:10;;;;;;;5.70;4.65;;;;;;;25.78;56.79;98437.58;1735086;82;25506;-60
2022/08/01 11:41:37;;;;;;;5.90;4.70;;;;;;;25.86;56.47;98434.06;1740549;82;25645;-59
2022/08/01 11:44:22;;;;;;;6.95;4.58;;;;;;;26.08;57.23;98432.33;1740429;82;25483;-60
2022/08/01 11:46:58;;;;;;;6.58;4.60;;;;;;;26.52;57.37;98439.45;1739594;82;25899;-59
2022/08/01 11:49:44;;;;;;;5.80;4.03;;;;;;;26.83;55.44;98431.47;1723713;83;26253;-59